Terminal Aerodrome Forecast
Issued by NWS Caribou, ME

Home | Current Version | Previous Version | Text Only | Print | Product List | Glossary On
Versions: 1 2 3 4 5 6 7 8 9 10 11 12 13 14 15 16 17 18 19 20
046
FTUS41 KCAR 191901 AAA
TAFBGR
TAF AMD
KBGR 191901Z 1919/2018 VRB03KT P6SM BKN012
     FM200300 20004KT 3SM BR BKN005
     FM201000 24004KT P6SM BKN003
     FM201400 30008KT P6SM SCT008
     FM201500 30008KT P6SM SCT020=

USA.gov is the U.S. government's official web portal to all federal, state and local government web resources and services.